createdAt,value
2017-07-03T00:00:33.751Z,1010.43
2017-07-03T00:01:14.260Z,1010.44
2017-07-03T00:01:54.750Z,1010.43
2017-07-03T00:02:35.281Z,1010.4
2017-07-03T00:03:15.804Z,1010.51
2017-07-03T00:03:56.289Z,1010.45
2017-07-03T00:04:36.799Z,1010.47
2017-07-03T00:05:17.444Z,1010.49
2017-07-03T00:05:58.007Z,1010.51
2017-07-03T00:06:38.480Z,1010.5
2017-07-03T00:07:18.990Z,1010.53
2017-07-03T00:07:59.508Z,1010.52
2017-07-03T00:08:39.992Z,1010.52
2017-07-03T00:09:20.507Z,1010.54
2017-07-03T00:10:00.976Z,1010.55
2017-07-03T00:10:41.529Z,1010.56
2017-07-03T00:11:21.997Z,1010.53
2017-07-03T00:12:02.517Z,1010.54
2017-07-03T00:12:43.017Z,1010.59
2017-07-03T00:13:23.555Z,1010.56
2017-07-03T00:14:04.100Z,1010.52
2017-07-03T00:14:44.572Z,1010.55
2017-07-03T00:15:25.026Z,1010.55
2017-07-03T00:16:05.535Z,1010.57
2017-07-03T00:16:46.072Z,1010.58
2017-07-03T00:17:26.537Z,1010.59
2017-07-03T00:18:07.048Z,1010.59
2017-07-03T00:18:47.526Z,1010.55
2017-07-03T00:19:28.065Z,1010.56
2017-07-03T00:20:08.510Z,1010.55
2017-07-03T00:20:49.027Z,1010.63
2017-07-03T00:21:29.579Z,1010.58
2017-07-03T00:22:10.071Z,1010.61
2017-07-03T00:22:50.578Z,1010.63
2017-07-03T00:23:31.042Z,1010.62
2017-07-03T00:24:11.569Z,1010.6
2017-07-03T00:24:52.117Z,1010.65
2017-07-03T00:25:32.564Z,1010.6
2017-07-03T00:26:13.072Z,1010.67
2017-07-03T00:26:53.677Z,1010.64
2017-07-03T00:27:34.188Z,1010.61
2017-07-03T00:28:14.662Z,1010.58
2017-07-03T00:28:55.195Z,1010.63
2017-07-03T00:29:35.761Z,1010.61
2017-07-03T00:30:16.283Z,1010.59
2017-07-03T00:30:56.770Z,1010.62
2017-07-03T00:31:37.281Z,1010.58
2017-07-03T00:32:17.780Z,1010.61
2017-07-03T00:32:58.234Z,1010.61
2017-07-03T00:33:38.725Z,1010.6
2017-07-03T00:34:19.255Z,1010.6
2017-07-03T00:34:59.752Z,1010.66
2017-07-03T00:35:40.249Z,1010.61
2017-07-03T00:36:20.741Z,1010.6
2017-07-03T00:37:01.263Z,1010.58
2017-07-03T00:37:41.729Z,1010.54
2017-07-03T00:38:22.207Z,1010.57
2017-07-03T00:39:02.703Z,1010.54
2017-07-03T00:39:43.234Z,1010.57
2017-07-03T00:40:23.766Z,1010.54
2017-07-03T00:41:04.300Z,1010.56
2017-07-03T00:41:44.843Z,1010.57
2017-07-03T00:42:25.300Z,1010.51
2017-07-03T00:43:05.796Z,1010.54
2017-07-03T00:43:46.292Z,1010.55
2017-07-03T00:44:26.750Z,1010.61
2017-07-03T00:45:07.271Z,1010.58
2017-07-03T00:45:47.739Z,1010.54
2017-07-03T00:46:28.248Z,1010.56
2017-07-03T00:47:08.803Z,1010.59
2017-07-03T00:47:49.337Z,1010.57
2017-07-03T00:48:29.820Z,1010.58
2017-07-03T00:49:11.133Z,1010.54
2017-07-03T00:49:51.605Z,1010.54
2017-07-03T00:50:32.150Z,1010.56
2017-07-03T00:51:12.640Z,1010.54
2017-07-03T00:51:53.140Z,1010.57
2017-07-03T00:52:33.597Z,1010.6
2017-07-03T00:53:14.146Z,1010.63
2017-07-03T00:53:54.656Z,1010.56
2017-07-03T00:54:35.153Z,1010.53
2017-07-03T00:55:15.777Z,1010.57
2017-07-03T00:55:56.232Z,1010.56
2017-07-03T00:56:36.705Z,1010.57
2017-07-03T00:57:17.223Z,1010.54
2017-07-03T00:57:57.707Z,1010.55
2017-07-03T00:58:38.249Z,1010.5
2017-07-03T00:59:18.768Z,1010.54
2017-07-03T00:59:59.240Z,1010.51
2017-07-03T01:00:39.757Z,1010.52
2017-07-03T01:01:20.209Z,1010.51
2017-07-03T01:02:00.770Z,1010.49
2017-07-03T01:02:41.285Z,1010.49
2017-07-03T01:03:21.741Z,1010.43
2017-07-03T01:04:02.200Z,1010.46
2017-07-03T01:04:42.740Z,1010.5
2017-07-03T01:05:23.200Z,1010.48
2017-07-03T01:06:03.707Z,1010.49
2017-07-03T01:06:44.175Z,1010.48
2017-07-03T01:07:24.692Z,1010.49
2017-07-03T01:08:05.187Z,1010.53
2017-07-03T01:08:45.721Z,1010.5
2017-07-03T01:09:26.214Z,1010.52
2017-07-03T01:10:06.728Z,1010.55
2017-07-03T01:10:47.203Z,1010.52
2017-07-03T01:11:27.717Z,1010.52
2017-07-03T01:12:08.252Z,1010.54
2017-07-03T01:12:48.715Z,1010.51
2017-07-03T01:13:29.190Z,1010.48
2017-07-03T01:14:09.737Z,1010.49
2017-07-03T01:14:50.170Z,1010.48
2017-07-03T01:15:30.681Z,1010.5
2017-07-03T01:16:11.197Z,1010.51
2017-07-03T01:16:51.717Z,1010.53
2017-07-03T01:17:32.196Z,1010.52
2017-07-03T01:18:12.721Z,1010.48
2017-07-03T01:18:53.201Z,1010.52
2017-07-03T01:19:33.737Z,1010.48
2017-07-03T01:20:14.199Z,1010.51
2017-07-03T01:20:54.720Z,1010.5
2017-07-03T01:21:35.188Z,1010.48
2017-07-03T01:22:15.717Z,1010.48
2017-07-03T01:22:56.178Z,1010.47
2017-07-03T01:23:36.728Z,1010.45
2017-07-03T01:24:17.183Z,1010.49
2017-07-03T01:24:57.693Z,1010.48
2017-07-03T01:25:38.213Z,1010.5
2017-07-03T01:26:18.692Z,1010.49
2017-07-03T01:26:59.195Z,1010.51
2017-07-03T01:27:39.689Z,1010.52
2017-07-03T01:28:20.183Z,1010.5
2017-07-03T01:29:00.687Z,1010.51
2017-07-03T01:29:41.167Z,1010.5
2017-07-03T01:30:21.631Z,1010.48
2017-07-03T01:31:02.160Z,1010.51
2017-07-03T01:31:42.626Z,1010.52
2017-07-03T01:32:23.106Z,1010.48
2017-07-03T01:33:03.624Z,1010.51
2017-07-03T01:33:44.277Z,1010.46
2017-07-03T01:34:24.784Z,1010.49
2017-07-03T01:35:05.326Z,1010.51
2017-07-03T01:35:45.828Z,1010.53
2017-07-03T01:36:26.286Z,1010.53
2017-07-03T01:37:06.776Z,1010.51
2017-07-03T01:37:47.245Z,1010.53
2017-07-03T01:38:27.741Z,1010.52
2017-07-03T01:39:08.346Z,1010.52
2017-07-03T01:39:48.925Z,1010.53
2017-07-03T01:40:29.336Z,1010.55
2017-07-03T01:41:09.836Z,1010.52
2017-07-03T01:41:50.348Z,1010.52
2017-07-03T01:42:30.831Z,1010.51
2017-07-03T01:43:11.330Z,1010.51
2017-07-03T01:43:51.855Z,1010.55
2017-07-03T01:44:32.328Z,1010.54
2017-07-03T01:45:12.829Z,1010.51
2017-07-03T01:45:53.336Z,1010.5
2017-07-03T01:46:33.812Z,1010.53
2017-07-03T01:47:14.344Z,1010.48
2017-07-03T01:47:54.851Z,1010.5
2017-07-03T01:48:35.365Z,1010.49
2017-07-03T01:49:15.838Z,1010.5
2017-07-03T01:49:56.337Z,1010.51
2017-07-03T01:50:36.795Z,1010.54
2017-07-03T01:51:17.427Z,1010.52
2017-07-03T01:51:57.758Z,1010.5
2017-07-03T01:52:38.285Z,1010.53
2017-07-03T01:53:18.781Z,1010.52
2017-07-03T01:53:59.312Z,1010.54
2017-07-03T01:54:39.798Z,1010.55
2017-07-03T01:55:20.332Z,1010.52
2017-07-03T01:56:00.825Z,1010.53
2017-07-03T01:56:41.337Z,1010.56
2017-07-03T01:57:21.826Z,1010.55
2017-07-03T01:58:02.312Z,1010.6
2017-07-03T01:58:42.806Z,1010.56
2017-07-03T01:59:23.295Z,1010.55
2017-07-03T02:00:03.842Z,1010.6
2017-07-03T02:00:44.435Z,1010.57
2017-07-03T02:01:24.932Z,1010.58
2017-07-03T02:02:05.437Z,1010.63
2017-07-03T02:02:46.050Z,1010.58
2017-07-03T02:04:43.832Z,1010.65
2017-07-03T02:05:24.357Z,1010.6
2017-07-03T02:06:04.870Z,1010.64
2017-07-03T02:06:45.382Z,1010.6
2017-07-03T02:07:25.978Z,1010.65
2017-07-03T02:08:06.472Z,1010.62
2017-07-03T02:08:47.001Z,1010.62
2017-07-03T02:09:27.502Z,1010.58
2017-07-03T02:10:08.036Z,1010.64
2017-07-03T02:10:48.562Z,1010.68
2017-07-03T02:11:29.041Z,1010.67
2017-07-03T02:12:09.548Z,1010.67
2017-07-03T02:12:50.080Z,1010.69
2017-07-03T02:13:30.558Z,1010.64
2017-07-03T02:14:10.998Z,1010.65
2017-07-03T02:14:51.542Z,1010.69
2017-07-03T02:15:32.031Z,1010.68
2017-07-03T02:16:12.508Z,1010.7
2017-07-03T02:16:53.013Z,1010.64
2017-07-03T02:17:33.499Z,1010.66
2017-07-03T02:18:13.972Z,1010.63
2017-07-03T02:18:54.473Z,1010.62
2017-07-03T02:19:34.951Z,1010.65
2017-07-03T02:20:15.469Z,1010.55
2017-07-03T02:20:55.937Z,1010.56
2017-07-03T02:21:36.379Z,1010.59
2017-07-03T02:22:16.881Z,1010.57
2017-07-03T02:22:57.392Z,1010.52
2017-07-03T02:23:37.884Z,1010.51
2017-07-03T02:24:18.396Z,1010.52
2017-07-03T02:24:58.931Z,1010.52
2017-07-03T02:25:39.373Z,1010.5
2017-07-03T02:26:19.899Z,1010.5
2017-07-03T02:27:00.426Z,1010.48
2017-07-03T02:27:40.864Z,1010.5
2017-07-03T02:28:21.386Z,1010.52
2017-07-03T02:29:01.887Z,1010.45
2017-07-03T02:29:42.364Z,1010.48
2017-07-03T02:30:22.858Z,1010.51
2017-07-03T02:31:03.397Z,1010.49
2017-07-03T02:31:43.868Z,1010.54
2017-07-03T02:32:24.431Z,1010.53
2017-07-03T02:33:05.002Z,1010.49
2017-07-03T02:33:45.648Z,1010.53
2017-07-03T02:34:26.150Z,1010.55
2017-07-03T02:35:06.692Z,1010.51
2017-07-03T02:35:47.143Z,1010.51
2017-07-03T02:36:27.671Z,1010.49
2017-07-03T02:37:08.169Z,1010.51
2017-07-03T02:37:48.651Z,1010.47
2017-07-03T02:38:29.144Z,1010.44
2017-07-03T02:39:09.653Z,1010.46
2017-07-03T02:39:50.165Z,1010.43
2017-07-03T02:40:30.638Z,1010.45
2017-07-03T02:41:11.159Z,1010.45
2017-07-03T02:41:51.627Z,1010.44
2017-07-03T02:42:32.170Z,1010.47
2017-07-03T02:43:12.639Z,1010.46
2017-07-03T02:43:53.149Z,1010.48
2017-07-03T02:44:33.649Z,1010.43
2017-07-03T02:45:14.170Z,1010.43
2017-07-03T02:45:54.759Z,1010.42
2017-07-03T02:46:35.249Z,1010.39
2017-07-03T02:47:15.734Z,1010.43
2017-07-03T02:47:56.235Z,1010.41
2017-07-03T02:48:36.696Z,1010.39
2017-07-03T02:49:17.175Z,1010.41
2017-07-03T02:49:57.696Z,1010.44
2017-07-03T02:50:38.183Z,1010.38
2017-07-03T02:51:18.697Z,1010.38
2017-07-03T02:51:59.270Z,1010.39
2017-07-03T02:52:39.826Z,1010.37
2017-07-03T02:53:20.380Z,1010.36
2017-07-03T02:54:00.829Z,1010.4
2017-07-03T02:54:41.359Z,1010.39
2017-07-03T02:55:21.849Z,1010.4
2017-07-03T02:56:02.331Z,1010.44
2017-07-03T02:56:42.825Z,1010.42
2017-07-03T02:57:23.342Z,1010.41
2017-07-03T02:58:03.840Z,1010.42
2017-07-03T02:58:44.316Z,1010.47
2017-07-03T02:59:24.783Z,1010.44
2017-07-03T03:00:05.263Z,1010.49
2017-07-03T03:00:45.796Z,1010.49
2017-07-03T03:01:26.250Z,1010.49
2017-07-03T03:02:06.739Z,1010.5
2017-07-03T03:02:47.234Z,1010.5
2017-07-03T03:03:27.728Z,1010.46
2017-07-03T03:04:08.199Z,1010.53
2017-07-03T03:04:48.689Z,1010.51
2017-07-03T03:05:29.192Z,1010.48
2017-07-03T03:06:09.734Z,1010.46
2017-07-03T03:06:50.211Z,1010.49
2017-07-03T03:07:30.739Z,1010.45
2017-07-03T03:08:11.265Z,1010.49
2017-07-03T03:08:51.758Z,1010.47
2017-07-03T03:09:32.238Z,1010.49
2017-07-03T03:10:12.948Z,1010.5
2017-07-03T03:10:53.407Z,1010.53
2017-07-03T03:11:34.029Z,1010.5
2017-07-03T03:12:14.537Z,1010.53
2017-07-03T03:12:55.031Z,1010.49
2017-07-03T03:13:35.516Z,1010.52
2017-07-03T03:14:16.045Z,1010.5
2017-07-03T03:14:56.542Z,1010.49
2017-07-03T03:15:37.052Z,1010.48
2017-07-03T03:16:17.519Z,1010.5
2017-07-03T03:16:58.025Z,1010.48
2017-07-03T03:17:38.505Z,1010.44
2017-07-03T03:18:19.028Z,1010.48
2017-07-03T03:18:59.507Z,1010.48
2017-07-03T03:19:39.988Z,1010.47
2017-07-03T03:20:20.527Z,1010.44
2017-07-03T03:21:00.999Z,1010.45
2017-07-03T03:21:41.458Z,1010.49
2017-07-03T03:22:21.947Z,1010.49
2017-07-03T03:23:02.524Z,1010.47
2017-07-03T03:23:43.006Z,1010.45
2017-07-03T03:24:23.492Z,1010.47
2017-07-03T03:25:03.985Z,1010.48
2017-07-03T03:25:44.514Z,1010.46
2017-07-03T03:26:25.066Z,1010.44
2017-07-03T03:27:05.596Z,1010.51
2017-07-03T03:27:46.090Z,1010.54
2017-07-03T03:28:26.574Z,1010.49
2017-07-03T03:29:07.119Z,1010.5
2017-07-03T03:29:47.618Z,1010.54
2017-07-03T03:30:28.083Z,1010.54
2017-07-03T03:31:08.607Z,1010.49
2017-07-03T03:31:49.085Z,1010.52
2017-07-03T03:32:29.566Z,1010.51
2017-07-03T03:33:10.069Z,1010.53
2017-07-03T03:33:50.555Z,1010.58
2017-07-03T03:34:31.153Z,1010.57
2017-07-03T03:35:11.635Z,1010.59
2017-07-03T03:35:52.190Z,1010.59
2017-07-03T03:36:32.805Z,1010.61
2017-07-03T03:37:13.279Z,1010.63
2017-07-03T03:37:53.744Z,1010.62
2017-07-03T03:38:34.222Z,1010.62
2017-07-03T03:39:14.772Z,1010.63
2017-07-03T03:39:55.242Z,1010.61
2017-07-03T03:40:35.724Z,1010.59
2017-07-03T03:41:16.240Z,1010.59
2017-07-03T03:41:56.699Z,1010.56
2017-07-03T03:42:37.195Z,1010.6
2017-07-03T03:43:17.721Z,1010.57
2017-07-03T03:43:58.220Z,1010.59
2017-07-03T03:44:38.825Z,1010.62
2017-07-03T03:45:19.380Z,1010.59
2017-07-03T03:45:59.932Z,1010.59
2017-07-03T03:46:40.390Z,1010.62
2017-07-03T03:47:20.893Z,1010.63
2017-07-03T03:48:01.416Z,1010.59
2017-07-03T03:48:41.888Z,1010.6
2017-07-03T03:49:22.390Z,1010.62
2017-07-03T03:50:03.445Z,1010.62
2017-07-03T03:50:43.955Z,1010.62
2017-07-03T03:51:24.486Z,1010.64
2017-07-03T03:52:04.956Z,1010.65
2017-07-03T03:52:45.431Z,1010.66
2017-07-03T03:53:25.937Z,1010.65
2017-07-03T03:54:06.450Z,1010.63
2017-07-03T03:54:46.959Z,1010.6
2017-07-03T03:55:27.433Z,1010.63
2017-07-03T03:56:07.965Z,1010.62
2017-07-03T03:56:48.410Z,1010.63
2017-07-03T03:59:01.802Z,1010.59
2017-07-03T03:59:42.320Z,1010.64
2017-07-03T04:00:22.935Z,1010.63
2017-07-03T04:01:03.473Z,1010.61
2017-07-03T04:01:43.973Z,1010.63
2017-07-03T04:02:24.573Z,1010.65
2017-07-03T04:03:05.030Z,1010.64
2017-07-03T04:03:45.551Z,1010.64
2017-07-03T04:04:26.165Z,1010.66
2017-07-03T04:05:06.660Z,1010.69
2017-07-03T04:05:47.157Z,1010.68
2017-07-03T04:06:27.652Z,1010.67
2017-07-03T04:07:08.161Z,1010.7
2017-07-03T04:07:48.688Z,1010.68
2017-07-03T04:08:29.187Z,1010.67
2017-07-03T04:10:57.814Z,1010.6
2017-07-03T04:11:38.348Z,1010.64
2017-07-03T04:12:18.858Z,1010.65
2017-07-03T04:12:59.365Z,1010.61
2017-07-03T04:13:39.898Z,1010.63
2017-07-03T04:14:20.360Z,1010.65
2017-07-03T04:15:00.864Z,1010.65
2017-07-03T04:15:41.373Z,1010.66
2017-07-03T04:16:21.931Z,1010.61
2017-07-03T04:17:02.496Z,1010.6
2017-07-03T04:18:56.121Z,1010.54
2017-07-03T04:19:36.634Z,1010.55
2017-07-03T04:20:17.181Z,1010.58
2017-07-03T04:20:57.827Z,1010.54
2017-07-03T04:21:38.301Z,1010.59
2017-07-03T04:22:18.772Z,1010.59
2017-07-03T04:22:59.260Z,1010.6
2017-07-03T04:23:39.741Z,1010.6
2017-07-03T04:24:20.254Z,1010.6
2017-07-03T04:25:00.805Z,1010.62
2017-07-03T04:25:41.301Z,1010.61
2017-07-03T04:26:21.819Z,1010.6
2017-07-03T04:27:02.355Z,1010.63
2017-07-03T04:27:42.846Z,1010.65
2017-07-03T04:28:23.291Z,1010.68
2017-07-03T04:29:03.800Z,1010.68
2017-07-03T04:29:44.309Z,1010.68
2017-07-03T04:30:24.798Z,1010.71
2017-07-03T04:31:05.313Z,1010.71
2017-07-03T04:31:45.773Z,1010.74
2017-07-03T04:32:26.258Z,1010.72
2017-07-03T04:33:06.770Z,1010.69
2017-07-03T04:33:47.229Z,1010.69
2017-07-03T04:34:27.760Z,1010.69
2017-07-03T04:35:08.246Z,1010.7
2017-07-03T04:35:48.709Z,1010.71
2017-07-03T04:36:29.252Z,1010.7
2017-07-03T04:37:09.680Z,1010.71
2017-07-03T04:37:50.190Z,1010.7
2017-07-03T04:38:30.860Z,1010.66
2017-07-03T04:39:11.412Z,1010.74
2017-07-03T04:39:52.101Z,1010.71
2017-07-03T04:40:32.582Z,1010.72
2017-07-03T04:41:13.034Z,1010.71
2017-07-03T04:41:53.672Z,1010.77
2017-07-03T04:42:34.163Z,1010.76
2017-07-03T04:43:14.877Z,1010.75
2017-07-03T04:43:55.443Z,1010.71
2017-07-03T04:44:35.969Z,1010.73
2017-07-03T04:45:16.487Z,1010.74
2017-07-03T04:45:56.961Z,1010.75
2017-07-03T04:46:37.490Z,1010.72
2017-07-03T04:47:18.040Z,1010.7
2017-07-03T04:47:58.654Z,1010.71
2017-07-03T04:48:39.181Z,1010.72
2017-07-03T04:49:19.709Z,1010.68
2017-07-03T04:50:00.205Z,1010.67
2017-07-03T04:50:40.698Z,1010.68
2017-07-03T04:51:21.233Z,1010.72
2017-07-03T04:52:01.735Z,1010.68
2017-07-03T04:52:42.232Z,1010.77
2017-07-03T04:53:22.751Z,1010.71
2017-07-03T04:54:03.265Z,1010.77
2017-07-03T04:54:43.794Z,1010.75
2017-07-03T04:55:24.266Z,1010.73
2017-07-03T04:56:04.739Z,1010.75
2017-07-03T04:56:45.405Z,1010.74
2017-07-03T04:57:25.829Z,1010.72
2017-07-03T04:58:06.330Z,1010.73
2017-07-03T04:58:46.826Z,1010.77
2017-07-03T04:59:27.362Z,1010.75
2017-07-03T05:00:07.820Z,1010.76
2017-07-03T05:00:48.358Z,1010.77
2017-07-03T05:01:28.839Z,1010.78
2017-07-03T05:02:09.304Z,1010.75
2017-07-03T05:02:49.904Z,1010.76
2017-07-03T05:03:30.390Z,1010.78
2017-07-03T05:04:10.900Z,1010.79
2017-07-03T05:04:51.427Z,1010.82
2017-07-03T05:05:31.944Z,1010.79
2017-07-03T05:06:12.478Z,1010.78
2017-07-03T05:06:52.909Z,1010.78
2017-07-03T05:07:33.490Z,1010.84
2017-07-03T05:08:13.997Z,1010.79
2017-07-03T05:08:54.472Z,1010.81
2017-07-03T05:09:34.990Z,1010.86
2017-07-03T05:10:15.475Z,1010.88
2017-07-03T05:10:56.024Z,1010.84
2017-07-03T05:11:36.469Z,1010.83
2017-07-03T05:12:16.983Z,1010.87
2017-07-03T05:12:57.471Z,1010.82
2017-07-03T05:13:37.971Z,1010.85
2017-07-03T05:14:18.474Z,1010.9
2017-07-03T05:14:59.008Z,1010.88
2017-07-03T05:15:39.464Z,1010.88
2017-07-03T05:16:19.963Z,1010.87
2017-07-03T05:17:00.469Z,1010.86
2017-07-03T05:17:40.953Z,1010.85
2017-07-03T05:18:21.462Z,1010.86
2017-07-03T05:19:02.015Z,1010.87
2017-07-03T05:19:42.469Z,1010.89
2017-07-03T05:20:22.953Z,1010.89
2017-07-03T05:21:03.481Z,1010.89
2017-07-03T05:21:44.003Z,1010.83
2017-07-03T05:22:24.470Z,1010.88
2017-07-03T05:23:04.984Z,1010.86
2017-07-03T05:23:45.465Z,1010.88
2017-07-03T05:24:26.040Z,1010.89
2017-07-03T05:25:06.569Z,1010.9
2017-07-03T05:25:47.032Z,1010.94
2017-07-03T05:26:27.530Z,1010.96
2017-07-03T05:27:08.018Z,1010.99
2017-07-03T05:27:48.550Z,1011
2017-07-03T05:28:29.065Z,1010.98
2017-07-03T05:29:09.549Z,1010.98
2017-07-03T05:29:50.072Z,1010.98
2017-07-03T05:30:30.525Z,1011
2017-07-03T05:31:11.007Z,1010.96
2017-07-03T05:31:51.526Z,1010.96
2017-07-03T05:32:32.080Z,1011.01
2017-07-03T05:33:12.545Z,1010.98
2017-07-03T05:33:53.144Z,1010.95
2017-07-03T05:34:33.749Z,1010.98
2017-07-03T05:35:14.137Z,1010.99
2017-07-03T05:35:54.659Z,1011
2017-07-03T05:36:35.181Z,1011.02
2017-07-03T05:37:15.679Z,1011.07
2017-07-03T05:37:56.176Z,1011.05
2017-07-03T05:38:36.641Z,1011.06
2017-07-03T05:39:17.149Z,1011.03
2017-07-03T05:39:57.663Z,1011.06
2017-07-03T05:40:38.159Z,1011.05
2017-07-03T05:41:18.685Z,1010.97
2017-07-03T05:41:59.180Z,1011.01
2017-07-03T05:42:39.700Z,1011.05
2017-07-03T05:43:20.186Z,1011.09
2017-07-03T05:44:00.666Z,1011.07
2017-07-03T05:44:41.192Z,1011.06
2017-07-03T05:45:21.758Z,1011.05
2017-07-03T05:46:02.320Z,1011.02
2017-07-03T05:46:42.839Z,1011.03
2017-07-03T05:47:23.352Z,1011.04
2017-07-03T05:48:03.857Z,1011.02
2017-07-03T05:48:44.350Z,1011.03
2017-07-03T05:49:24.846Z,1011.02
2017-07-03T05:50:05.372Z,1011.02
2017-07-03T05:50:45.877Z,1011.07
2017-07-03T05:51:26.362Z,1011.03
2017-07-03T05:52:06.908Z,1011.07
2017-07-03T05:52:47.632Z,1011.1
2017-07-03T05:53:28.211Z,1011.1
2017-07-03T05:54:08.687Z,1011.14
2017-07-03T05:54:49.227Z,1011.15
2017-07-03T05:55:29.707Z,1011.19
2017-07-03T05:56:10.259Z,1011.13
2017-07-03T05:56:50.804Z,1011.14
2017-07-03T05:57:31.287Z,1011.18
2017-07-03T05:58:11.855Z,1011.14
2017-07-03T05:58:52.343Z,1011.16
2017-07-03T05:59:32.850Z,1011.16
2017-07-03T06:00:13.429Z,1011.14
2017-07-03T06:00:53.860Z,1011.15
2017-07-03T06:01:34.487Z,1011.19
2017-07-03T06:02:15.001Z,1011.15
2017-07-03T06:02:55.557Z,1011.17
2017-07-03T06:03:36.022Z,1011.19
2017-07-03T06:04:16.536Z,1011.14
2017-07-03T06:04:57.056Z,1011.1
2017-07-03T06:05:37.503Z,1011.18
2017-07-03T06:06:18.352Z,1011.16
2017-07-03T06:06:58.835Z,1011.16
2017-07-03T06:07:39.259Z,1011.18
2017-07-03T06:08:19.856Z,1011.16
2017-07-03T06:09:00.395Z,1011.15
2017-07-03T06:09:40.948Z,1011.17
2017-07-03T06:10:21.411Z,1011.11
2017-07-03T06:11:02.230Z,1011.12
2017-07-03T06:11:42.815Z,1011.1
2017-07-03T06:12:23.509Z,1011.08
2017-07-03T06:13:04.459Z,1011.08
2017-07-03T06:13:44.947Z,1011.08
2017-07-03T06:14:25.495Z,1011.1
2017-07-03T06:15:06.035Z,1011.13
2017-07-03T06:15:46.574Z,1011.15
2017-07-03T06:16:27.080Z,1011.15
2017-07-03T06:17:07.591Z,1011.12
2017-07-03T06:17:48.096Z,1011.14
2017-07-03T06:18:28.715Z,1011.16
2017-07-03T06:19:09.323Z,1011.18
2017-07-03T06:19:49.948Z,1011.14
2017-07-03T06:20:30.830Z,1011.17
2017-07-03T06:21:11.353Z,1011.14
2017-07-03T06:21:51.828Z,1011.08
2017-07-03T06:22:32.379Z,1011.08
2017-07-03T06:23:13.289Z,1011.12
2017-07-03T06:23:53.474Z,1011.17
2017-07-03T06:24:33.984Z,1011.14
2017-07-03T06:25:14.492Z,1011.16
2017-07-03T06:25:55.555Z,1011.19
2017-07-03T06:26:36.081Z,1011.17
2017-07-03T06:27:16.608Z,1011.2
2017-07-03T06:27:57.242Z,1011.17
2017-07-03T06:28:38.522Z,1011.21
2017-07-03T06:29:19.060Z,1011.22
2017-07-03T06:29:59.555Z,1011.21
2017-07-03T06:30:40.097Z,1011.22
2017-07-03T06:31:20.574Z,1011.19
2017-07-03T06:32:01.024Z,1011.29
2017-07-03T06:32:41.564Z,1011.24
2017-07-03T06:33:22.066Z,1011.25
2017-07-03T06:34:02.617Z,1011.2
2017-07-03T06:34:43.383Z,1011.23
2017-07-03T06:35:23.859Z,1011.3
2017-07-03T06:36:04.312Z,1011.25
2017-07-03T06:36:44.867Z,1011.24
2017-07-03T06:37:25.340Z,1011.27
2017-07-03T06:38:05.835Z,1011.24
2017-07-03T06:38:46.342Z,1011.2
2017-07-03T06:39:26.898Z,1011.26
2017-07-03T06:40:07.578Z,1011.23
2017-07-03T06:40:47.968Z,1011.24
2017-07-03T06:41:28.447Z,1011.24
2017-07-03T06:42:09.205Z,1011.25
2017-07-03T06:44:32.292Z,1011.24
2017-07-03T06:45:12.905Z,1011.23
2017-07-03T06:45:53.576Z,1011.25
2017-07-03T06:46:34.095Z,1011.26
2017-07-03T06:47:14.734Z,1011.26
2017-07-03T06:47:55.421Z,1011.3
2017-07-03T06:48:35.946Z,1011.26
2017-07-03T06:49:16.516Z,1011.24
2017-07-03T06:49:56.990Z,1011.29
2017-07-03T06:50:37.555Z,1011.25
2017-07-03T06:51:18.062Z,1011.3
2017-07-03T06:51:58.573Z,1011.28
2017-07-03T06:52:39.375Z,1011.25
2017-07-03T06:53:19.937Z,1011.19
2017-07-03T06:54:00.469Z,1011.25
2017-07-03T06:54:40.941Z,1011.25
2017-07-03T06:55:21.500Z,1011.27
2017-07-03T06:56:01.957Z,1011.22
2017-07-03T06:56:42.642Z,1011.24
2017-07-03T06:57:23.286Z,1011.26
2017-07-03T06:58:03.851Z,1011.25
2017-07-03T06:58:44.265Z,1011.27
2017-07-03T06:59:24.760Z,1011.28
2017-07-03T07:00:05.284Z,1011.24
2017-07-03T07:00:45.896Z,1011.3
2017-07-03T07:01:26.416Z,1011.32
2017-07-03T07:02:06.940Z,1011.33
2017-07-03T07:02:47.575Z,1011.32
2017-07-03T07:03:28.074Z,1011.27
2017-07-03T07:04:08.597Z,1011.32
2017-07-03T07:04:49.127Z,1011.32
2017-07-03T07:05:29.650Z,1011.3
2017-07-03T07:06:10.201Z,1011.29
2017-07-03T07:06:50.695Z,1011.31
2017-07-03T07:07:32.339Z,1011.29
2017-07-03T07:08:12.222Z,1011.29
2017-07-03T07:08:52.741Z,1011.29
2017-07-03T07:09:33.801Z,1011.29
2017-07-03T07:10:13.749Z,1011.29
2017-07-03T07:10:54.811Z,1011.28
2017-07-03T07:11:35.308Z,1011.31
2017-07-03T07:12:15.809Z,1011.3
2017-07-03T07:12:56.403Z,1011.3
2017-07-03T07:13:36.953Z,1011.3
2017-07-03T07:14:17.406Z,1011.28
2017-07-03T07:14:57.948Z,1011.29
2017-07-03T07:15:38.395Z,1011.32
2017-07-03T07:16:19.007Z,1011.28
2017-07-03T07:17:00.504Z,1011.3
2017-07-03T07:17:41.029Z,1011.3
2017-07-03T07:18:21.522Z,1011.32
2017-07-03T07:19:02.076Z,1011.27
2017-07-03T07:19:42.553Z,1011.27
2017-07-03T07:20:23.037Z,1011.28
2017-07-03T07:21:03.569Z,1011.26
2017-07-03T07:21:44.159Z,1011.3
2017-07-03T07:22:24.629Z,1011.28
2017-07-03T07:23:05.661Z,1011.27
2017-07-03T07:23:46.142Z,1011.25
2017-07-03T07:24:26.651Z,1011.3
2017-07-03T07:25:07.190Z,1011.24
2017-07-03T07:25:47.720Z,1011.27
2017-07-03T07:26:28.242Z,1011.27
2017-07-03T07:27:08.786Z,1011.3
2017-07-03T07:27:49.328Z,1011.27
2017-07-03T07:28:29.831Z,1011.31
2017-07-03T07:29:10.340Z,1011.27
2017-07-03T07:29:50.837Z,1011.23
2017-07-03T07:30:31.309Z,1011.27
2017-07-03T07:31:11.833Z,1011.3
2017-07-03T07:31:52.346Z,1011.3
2017-07-03T07:32:32.818Z,1011.25
2017-07-03T07:33:13.325Z,1011.25
2017-07-03T07:35:42.250Z,1011.23
2017-07-03T07:36:23.346Z,1011.25
2017-07-03T07:37:03.883Z,1011.25
2017-07-03T07:37:44.434Z,1011.26
2017-07-03T07:38:25.025Z,1011.26
2017-07-03T07:39:05.431Z,1011.23
2017-07-03T07:39:46.105Z,1011.26
2017-07-03T07:40:26.825Z,1011.24
2017-07-03T07:41:07.374Z,1011.25
2017-07-03T07:41:47.921Z,1011.24
2017-07-03T07:42:29.835Z,1011.23
2017-07-03T07:43:10.333Z,1011.23
2017-07-03T07:43:50.803Z,1011.23
2017-07-03T07:44:31.298Z,1011.22
2017-07-03T07:45:11.814Z,1011.24
2017-07-03T07:45:52.335Z,1011.19
2017-07-03T07:46:32.876Z,1011.21
2017-07-03T07:47:14.053Z,1011.22
2017-07-03T07:47:54.516Z,1011.18
2017-07-03T07:48:36.068Z,1011.22
2017-07-03T07:49:16.431Z,1011.19
2017-07-03T07:49:56.905Z,1011.2
2017-07-03T07:50:37.424Z,1011.18
2017-07-03T07:51:18.099Z,1011.23
2017-07-03T07:51:58.559Z,1011.22
2017-07-03T07:52:39.128Z,1011.22
2017-07-03T07:53:19.624Z,1011.22
2017-07-03T07:54:03.005Z,1011.21
2017-07-03T07:54:43.530Z,1011.13
2017-07-03T07:55:23.996Z,1011.19
2017-07-03T07:56:04.485Z,1011.18
2017-07-03T07:57:12.143Z,1011.21
2017-07-03T07:57:53.480Z,1011.17
2017-07-03T07:58:37.647Z,1011.23
2017-07-03T08:00:31.086Z,1011.2
2017-07-03T08:01:11.612Z,1011.21
2017-07-03T08:01:52.112Z,1011.22
2017-07-03T08:02:32.670Z,1011.21
2017-07-03T08:03:13.147Z,1011.19
2017-07-03T08:03:53.663Z,1011.25
2017-07-03T08:04:34.150Z,1011.18
2017-07-03T08:05:14.855Z,1011.21
2017-07-03T08:05:55.204Z,1011.22
2017-07-03T08:06:35.717Z,1011.22
2017-07-03T08:07:16.156Z,1011.21
2017-07-03T08:07:56.707Z,1011.18
2017-07-03T08:08:37.198Z,1011.2
2017-07-03T08:09:17.727Z,1011.19
2017-07-03T08:09:58.202Z,1011.18
2017-07-03T08:10:38.718Z,1011.21
2017-07-03T08:11:19.229Z,1011.14
2017-07-03T08:11:59.731Z,1011.17
2017-07-03T08:12:40.210Z,1011.18
2017-07-03T08:13:20.962Z,1011.2
2017-07-03T08:14:01.448Z,1011.2
2017-07-03T08:14:41.935Z,1011.22
2017-07-03T08:15:22.476Z,1011.24
2017-07-03T08:16:02.895Z,1011.25
2017-07-03T08:16:43.411Z,1011.24
2017-07-03T08:17:23.895Z,1011.24
2017-07-03T08:18:04.388Z,1011.24
2017-07-03T08:18:44.894Z,1011.21
2017-07-03T08:19:25.429Z,1011.25
2017-07-03T08:20:05.946Z,1011.24
2017-07-03T08:20:46.402Z,1011.22
2017-07-03T08:21:26.966Z,1011.27
2017-07-03T08:22:07.439Z,1011.3
2017-07-03T08:22:47.927Z,1011.29
2017-07-03T08:23:28.447Z,1011.27